Terminal Aerodrome Forecast
Issued by NWS Sioux Falls, SD

Home | Current Version | Previous Version | Graphics & Text | Print | Product List | Glossary On
Versions: 1 2 3 4 5 6 7 8 9 10 11 12 13 14 15 16 17 18 19 20
000
FTUS43 KFSD 250332 AAA
TAFSUX
TAF AMD
KSUX 250332Z 2504/2524 18006KT P6SM VCSH SCT025 OVC070
      TEMPO 2504/2506 SHRA BKN035
     FM250600 24005KT P6SM SCT070
     FM250900 30010KT P6SM SCT150
     FM251400 30011G25KT P6SM FEW250
     FM251700 31019G28KT P6SM BKN035=

USA.gov is the U.S. government's official web portal to all federal, state and local government web resources and services.